This is the latest recevied weather packets stored in our database for station/object M9XDX-WX. If no packets are shown the sender has not sent any weather packets the latest 10 day(s).
| Time | Temp. | Humidity | Pressure | Rain* | Wind** | Luminosity | Snow |
|---|---|---|---|---|---|---|---|
| 1777059740 | 15° C | 38% | 1020.9 hPa | 0 mm | - | 0 W/m² | - |
| 1777059003 | 15.56° C | 37% | 1020.7 hPa | 0 mm | - | 1 W/m² | - |
| 1777055403 | 17.78° C | 36% | 1020.8 hPa | 0 mm | - | 39 W/m² | - |
| 1777054803 | 17.78° C | 36% | 1020.6 hPa | 0 mm | - | 51 W/m² | - |
| 1777049403 | 18.89° C | 37% | 1020.8 hPa | 0 mm | - | 275 W/m² | - |
| 1777046403 | 18.89° C | 36% | 1021.5 hPa | 0 mm | - | 424 W/m² | - |
| 1777044003 | 18.33° C | 39% | 1021.9 hPa | 0 mm | - | 538 W/m² | - |
| 1777043403 | 18.33° C | 39% | 1021.8 hPa | 0 mm | - | 564 W/m² | - |
| 1777042203 | 18.33° C | 40% | 1022 hPa | 0 mm | - | 596 W/m² | - |
| 1777040540 | 18.33° C | 40% | 1022.4 hPa | 0 mm | - | 669 W/m² | - |
| 1777036203 | 17.78° C | 41% | 1022.9 hPa | 0 mm | - | 765 W/m² | - |
| 1777031403 | 15.56° C | 49% | 1024 hPa | 0 mm | - | 773 W/m² | - |
| 1777030803 | 15° C | 46% | 1024 hPa | 0 mm | - | 769 W/m² | - |
| 1777026003 | 11.67° C | 63% | 1024.8 hPa | 0 mm | - | 659 W/m² | - |
| 1777017740 | 6.67° C | 81% | 1025.7 hPa | 0 mm | - | 310 W/m² | - |
| 1777016537 | 6.11° C | 84% | 1025.7 hPa | 0 mm | - | 252 W/m² | - |
| 1777009203 | 5.56° C | 82% | 1025.4 hPa | 0 mm | - | 30 W/m² | - |
| 1777005003 | 5.56° C | 80% | 1025.4 hPa | 0 mm | - | 0 W/m² | - |
| 1777003338 | 6.11° C | 79% | 1025.4 hPa | 0 mm | - | 0 W/m² | - |
| 1776997803 | 8.33° C | 75% | 1025.7 hPa | 0 mm | - | 0 W/m² | - |
| 1776993003 | 8.89° C | 77% | 1026.1 hPa | 0 mm | - | 0 W/m² | - |
| 1776991803 | 9.44° C | 76% | 1025.8 hPa | 0 mm | - | 0 W/m² | - |
| 1776989403 | 10° C | 73% | 1025.8 hPa | 0 mm | - | 0 W/m² | - |
* Rain latest hour (hover to see other rain measurements)
** Current wind speed in m/s (hover to see current wind gust speed)